sensor_id;sensor_type;location;lat;lon;timestamp;pressure;altitude;pressure_sealevel;temperature;humidity
75745;BME280;64359;51.366;-0.222;2023-05-07T00:01:01;101118.38;;;21.84;57.69
75745;BME280;64359;51.366;-0.222;2023-05-07T00:02:04;101117.91;;;21.83;57.76
75745;BME280;64359;51.366;-0.222;2023-05-07T00:03:06;101122.77;;;21.84;57.77
75745;BME280;64359;51.366;-0.222;2023-05-07T00:04:08;101121.27;;;21.84;57.63
75745;BME280;64359;51.366;-0.222;2023-05-07T00:05:11;101120.02;;;21.84;57.69
75745;BME280;64359;51.366;-0.222;2023-05-07T00:06:14;101120.55;;;21.84;57.64
75745;BME280;64359;51.366;-0.222;2023-05-07T00:07:15;101121.05;;;21.84;57.67
75745;BME280;64359;51.366;-0.222;2023-05-07T00:08:17;101121.05;;;21.81;57.65
75745;BME280;64359;51.366;-0.222;2023-05-07T00:09:20;101122.64;;;21.82;57.62
75745;BME280;64359;51.366;-0.222;2023-05-07T00:10:22;101126.36;;;21.82;57.59
75745;BME280;64359;51.366;-0.222;2023-05-07T00:11:24;101121.48;;;21.82;57.59
75745;BME280;64359;51.366;-0.222;2023-05-07T00:12:27;101125.08;;;21.82;57.64
75745;BME280;64359;51.366;-0.222;2023-05-07T00:13:33;101125.41;;;21.83;57.59
75745;BME280;64359;51.366;-0.222;2023-05-07T00:14:37;101121.92;;;21.83;57.67
75745;BME280;64359;51.366;-0.222;2023-05-07T00:15:39;101126.73;;;21.84;57.45
75745;BME280;64359;51.366;-0.222;2023-05-07T00:16:41;101124.92;;;21.84;57.55
75745;BME280;64359;51.366;-0.222;2023-05-07T00:17:43;101125.39;;;21.84;57.46
75745;BME280;64359;51.366;-0.222;2023-05-07T00:18:46;101125.48;;;21.85;57.70
75745;BME280;64359;51.366;-0.222;2023-05-07T00:19:48;101125.17;;;21.86;57.78
75745;BME280;64359;51.366;-0.222;2023-05-07T00:20:50;101124.42;;;21.86;57.69
75745;BME280;64359;51.366;-0.222;2023-05-07T00:21:53;101127.30;;;21.86;57.57
75745;BME280;64359;51.366;-0.222;2023-05-07T00:22:55;101123.98;;;21.87;57.44
75745;BME280;64359;51.366;-0.222;2023-05-07T00:23:57;101125.23;;;21.87;57.56
75745;BME280;64359;51.366;-0.222;2023-05-07T00:25:00;101125.11;;;21.88;57.44
75745;BME280;64359;51.366;-0.222;2023-05-07T00:26:02;101124.95;;;21.88;57.44
75745;BME280;64359;51.366;-0.222;2023-05-07T00:27:04;101124.09;;;21.89;57.65
75745;BME280;64359;51.366;-0.222;2023-05-07T00:28:07;101123.38;;;21.89;57.50
75745;BME280;64359;51.366;-0.222;2023-05-07T00:29:09;101120.63;;;21.89;57.43
75745;BME280;64359;51.366;-0.222;2023-05-07T00:30:12;101118.59;;;21.90;57.28
75745;BME280;64359;51.366;-0.222;2023-05-07T00:31:15;101114.82;;;21.89;57.45
75745;BME280;64359;51.366;-0.222;2023-05-07T00:32:17;101114.88;;;21.90;57.30
75745;BME280;64359;51.366;-0.222;2023-05-07T00:33:19;101113.17;;;21.91;57.28
75745;BME280;64359;51.366;-0.222;2023-05-07T00:34:22;101113.38;;;21.91;57.40
75745;BME280;64359;51.366;-0.222;2023-05-07T00:35:24;101116.36;;;21.92;57.21
75745;BME280;64359;51.366;-0.222;2023-05-07T00:36:27;101115.48;;;21.91;57.19
75745;BME280;64359;51.366;-0.222;2023-05-07T00:37:29;101115.53;;;21.92;57.23
75745;BME280;64359;51.366;-0.222;2023-05-07T00:38:32;101113.36;;;21.92;57.26
75745;BME280;64359;51.366;-0.222;2023-05-07T00:39:34;101113.70;;;21.93;57.15
75745;BME280;64359;51.366;-0.222;2023-05-07T00:40:36;101112.41;;;21.93;57.13
75745;BME280;64359;51.366;-0.222;2023-05-07T00:41:39;101113.63;;;21.93;57.19
75745;BME280;64359;51.366;-0.222;2023-05-07T00:42:41;101113.63;;;21.93;57.09
75745;BME280;64359;51.366;-0.222;2023-05-07T00:43:48;101110.66;;;21.93;57.18
75745;BME280;64359;51.366;-0.222;2023-05-07T00:44:53;101110.87;;;21.93;57.14
75745;BME280;64359;51.366;-0.222;2023-05-07T00:45:55;101111.02;;;21.94;57.13
75745;BME280;64359;51.366;-0.222;2023-05-07T00:46:58;101110.77;;;21.94;57.07
75745;BME280;64359;51.366;-0.222;2023-05-07T00:48:04;101114.05;;;21.94;57.08
75745;BME280;64359;51.366;-0.222;2023-05-07T00:49:06;101113.44;;;21.95;57.11
75745;BME280;64359;51.366;-0.222;2023-05-07T00:50:10;101112.55;;;21.95;57.14
75745;BME280;64359;51.366;-0.222;2023-05-07T00:51:14;101109.46;;;21.95;57.18
75745;BME280;64359;51.366;-0.222;2023-05-07T00:52:17;101113.22;;;21.95;57.24
75745;BME280;64359;51.366;-0.222;2023-05-07T00:53:22;101111.73;;;21.95;57.13
75745;BME280;64359;51.366;-0.222;2023-05-07T00:54:24;101109.60;;;21.95;57.99
75745;BME280;64359;51.366;-0.222;2023-05-07T00:55:26;101112.77;;;21.95;57.90
75745;BME280;64359;51.366;-0.222;2023-05-07T00:56:29;101112.95;;;21.96;57.91
75745;BME280;64359;51.366;-0.222;2023-05-07T00:57:33;101111.11;;;21.96;57.52
75745;BME280;64359;51.366;-0.222;2023-05-07T00:58:38;101108.98;;;21.95;57.20
75745;BME280;64359;51.366;-0.222;2023-05-07T00:59:40;101109.15;;;21.96;57.20
75745;BME280;64359;51.366;-0.222;2023-05-07T01:00:43;101111.29;;;21.96;57.19
75745;BME280;64359;51.366;-0.222;2023-05-07T01:01:46;101107.27;;;21.96;57.26
75745;BME280;64359;51.366;-0.222;2023-05-07T01:02:48;101111.75;;;21.96;57.20
75745;BME280;64359;51.366;-0.222;2023-05-07T01:03:50;101111.91;;;21.97;57.24
75745;BME280;64359;51.366;-0.222;2023-05-07T01:04:52;101107.23;;;21.96;57.64
75745;BME280;64359;51.366;-0.222;2023-05-07T01:05:55;101109.52;;;21.97;57.64
75745;BME280;64359;51.366;-0.222;2023-05-07T01:06:59;101107.95;;;21.97;57.76
75745;BME280;64359;51.366;-0.222;2023-05-07T01:08:04;101103.81;;;21.96;57.56
75745;BME280;64359;51.366;-0.222;2023-05-07T01:09:07;101103.95;;;21.97;57.30
75745;BME280;64359;51.366;-0.222;2023-05-07T01:10:11;101104.53;;;21.96;57.18
75745;BME280;64359;51.366;-0.222;2023-05-07T01:11:14;101104.94;;;21.96;57.26
75745;BME280;64359;51.366;-0.222;2023-05-07T01:12:16;101106.52;;;21.96;57.36
75745;BME280;64359;51.366;-0.222;2023-05-07T01:13:19;101105.82;;;21.96;57.22
75745;BME280;64359;51.366;-0.222;2023-05-07T01:14:21;101110.48;;;21.96;57.14
75745;BME280;64359;51.366;-0.222;2023-05-07T01:15:24;101106.54;;;21.93;57.36
75745;BME280;64359;51.366;-0.222;2023-05-07T01:16:26;101108.33;;;21.93;57.22
75745;BME280;64359;51.366;-0.222;2023-05-07T01:17:29;101108.36;;;21.93;57.19
75745;BME280;64359;51.366;-0.222;2023-05-07T01:18:31;101106.37;;;21.93;57.22
75745;BME280;64359;51.366;-0.222;2023-05-07T01:19:33;101108.70;;;21.94;57.20
75745;BME280;64359;51.366;-0.222;2023-05-07T01:20:36;101109.24;;;21.93;57.23
75745;BME280;64359;51.366;-0.222;2023-05-07T01:21:39;101109.95;;;21.93;57.14
75745;BME280;64359;51.366;-0.222;2023-05-07T01:22:44;101108.91;;;21.93;57.20
75745;BME280;64359;51.366;-0.222;2023-05-07T01:23:47;101106.73;;;21.93;57.12
75745;BME280;64359;51.366;-0.222;2023-05-07T01:24:50;101111.62;;;21.93;57.22
75745;BME280;64359;51.366;-0.222;2023-05-07T01:25:53;101109.12;;;21.93;57.24
75745;BME280;64359;51.366;-0.222;2023-05-07T01:26:54;101107.65;;;21.93;57.27
75745;BME280;64359;51.366;-0.222;2023-05-07T01:27:57;101108.71;;;21.91;57.13
75745;BME280;64359;51.366;-0.222;2023-05-07T01:29:01;101105.13;;;21.90;57.20
75745;BME280;64359;51.366;-0.222;2023-05-07T01:30:03;101107.95;;;21.91;57.14
75745;BME280;64359;51.366;-0.222;2023-05-07T01:31:06;101111.75;;;21.91;57.18
75745;BME280;64359;51.366;-0.222;2023-05-07T01:32:09;101112.70;;;21.90;57.20
75745;BME280;64359;51.366;-0.222;2023-05-07T01:33:14;101112.41;;;21.90;57.17
75745;BME280;64359;51.366;-0.222;2023-05-07T01:34:17;101113.12;;;21.90;57.15
75745;BME280;64359;51.366;-0.222;2023-05-07T01:35:24;101111.83;;;21.90;57.23
75745;BME280;64359;51.366;-0.222;2023-05-07T01:36:29;101113.36;;;21.89;57.18
75745;BME280;64359;51.366;-0.222;2023-05-07T01:37:31;101115.50;;;21.90;57.23
75745;BME280;64359;51.366;-0.222;2023-05-07T01:38:34;101114.24;;;21.90;57.19
75745;BME280;64359;51.366;-0.222;2023-05-07T01:39:39;101116.38;;;21.90;57.19
75745;BME280;64359;51.366;-0.222;2023-05-07T01:40:42;101114.45;;;21.89;57.19
75745;BME280;64359;51.366;-0.222;2023-05-07T01:41:45;101117.70;;;21.89;57.26
75745;BME280;64359;51.366;-0.222;2023-05-07T01:42:48;101116.58;;;21.90;57.21
75745;BME280;64359;51.366;-0.222;2023-05-07T01:43:51;101114.78;;;21.89;57.18
75745;BME280;64359;51.366;-0.222;2023-05-07T01:44:54;101113.02;;;21.89;57.20
75745;BME280;64359;51.366;-0.222;2023-05-07T01:45:56;101113.23;;;21.89;57.18
75745;BME280;64359;51.366;-0.222;2023-05-07T01:46:59;101113.73;;;21.89;57.20
75745;BME280;64359;51.366;-0.222;2023-05-07T01:48:04;101117.57;;;21.89;57.17
75745;BME280;64359;51.366;-0.222;2023-05-07T01:49:06;101114.73;;;21.89;57.16
75745;BME280;64359;51.366;-0.222;2023-05-07T01:50:09;101112.80;;;21.88;57.18
75745;BME280;64359;51.366;-0.222;2023-05-07T01:51:12;101113.85;;;21.89;57.14
75745;BME280;64359;51.366;-0.222;2023-05-07T01:52:14;101109.55;;;21.88;57.18
75745;BME280;64359;51.366;-0.222;2023-05-07T01:53:16;101109.41;;;21.88;57.19
75745;BME280;64359;51.366;-0.222;2023-05-07T01:54:19;101109.80;;;21.88;57.15
75745;BME280;64359;51.366;-0.222;2023-05-07T01:55:22;101110.71;;;21.88;57.10
75745;BME280;64359;51.366;-0.222;2023-05-07T01:56:25;101112.51;;;21.87;57.10
75745;BME280;64359;51.366;-0.222;2023-05-07T01:57:27;101111.16;;;21.87;57.15
75745;BME280;64359;51.366;-0.222;2023-05-07T01:58:30;101111.66;;;21.87;57.12
75745;BME280;64359;51.366;-0.222;2023-05-07T01:59:32;101112.29;;;21.86;57.20
75745;BME280;64359;51.366;-0.222;2023-05-07T02:00:34;101113.82;;;21.86;57.19
75745;BME280;64359;51.366;-0.222;2023-05-07T02:01:36;101116.40;;;21.85;57.09
75745;BME280;64359;51.366;-0.222;2023-05-07T02:02:39;101117.18;;;21.85;57.10
75745;BME280;64359;51.366;-0.222;2023-05-07T02:03:41;101119.43;;;21.84;57.21
75745;BME280;64359;51.366;-0.222;2023-05-07T02:04:43;101122.31;;;21.84;57.08
75745;BME280;64359;51.366;-0.222;2023-05-07T02:05:45;101123.55;;;21.85;57.15
75745;BME280;64359;51.366;-0.222;2023-05-07T02:06:48;101124.17;;;21.84;57.23
75745;BME280;64359;51.366;-0.222;2023-05-07T02:07:50;101125.27;;;21.84;57.11
75745;BME280;64359;51.366;-0.222;2023-05-07T02:08:52;101119.92;;;21.83;57.06
75745;BME280;64359;51.366;-0.222;2023-05-07T02:09:55;101123.38;;;21.83;57.12
75745;BME280;64359;51.366;-0.222;2023-05-07T02:10:57;101121.59;;;21.83;57.11
75745;BME280;64359;51.366;-0.222;2023-05-07T02:11:59;101123.08;;;21.83;57.06
75745;BME280;64359;51.366;-0.222;2023-05-07T02:13:02;101122.37;;;21.82;57.13
75745;BME280;64359;51.366;-0.222;2023-05-07T02:14:04;101124.41;;;21.82;57.08
75745;BME280;64359;51.366;-0.222;2023-05-07T02:15:08;101128.23;;;21.82;57.09
75745;BME280;64359;51.366;-0.222;2023-05-07T02:16:10;101131.11;;;21.82;57.10
75745;BME280;64359;51.366;-0.222;2023-05-07T02:17:13;101128.85;;;21.81;57.13
75745;BME280;64359;51.366;-0.222;2023-05-07T02:18:16;101125.89;;;21.80;57.04
75745;BME280;64359;51.366;-0.222;2023-05-07T02:19:17;101132.55;;;21.80;57.11
75745;BME280;64359;51.366;-0.222;2023-05-07T02:20:22;101127.54;;;21.77;57.08
75745;BME280;64359;51.366;-0.222;2023-05-07T02:21:25;101129.20;;;21.77;57.14
75745;BME280;64359;51.366;-0.222;2023-05-07T02:22:27;101128.69;;;21.76;57.21
75745;BME280;64359;51.366;-0.222;2023-05-07T02:23:29;101127.30;;;21.76;57.17
75745;BME280;64359;51.366;-0.222;2023-05-07T02:24:31;101130.35;;;21.76;57.21
75745;BME280;64359;51.366;-0.222;2023-05-07T02:25:34;101131.47;;;21.76;57.11
75745;BME280;64359;51.366;-0.222;2023-05-07T02:26:36;101132.01;;;21.76;57.06
75745;BME280;64359;51.366;-0.222;2023-05-07T02:27:38;101127.20;;;21.75;57.11
75745;BME280;64359;51.366;-0.222;2023-05-07T02:28:40;101126.29;;;21.75;57.03
75745;BME280;64359;51.366;-0.222;2023-05-07T02:29:43;101125.95;;;21.75;57.14
75745;BME280;64359;51.366;-0.222;2023-05-07T02:30:45;101120.60;;;21.74;57.13
75745;BME280;64359;51.366;-0.222;2023-05-07T02:31:47;101126.56;;;21.74;57.15
75745;BME280;64359;51.366;-0.222;2023-05-07T02:32:52;101123.35;;;21.74;57.17
75745;BME280;64359;51.366;-0.222;2023-05-07T02:33:54;101126.98;;;21.74;57.19
75745;BME280;64359;51.366;-0.222;2023-05-07T02:34:56;101128.39;;;21.74;57.15
75745;BME280;64359;51.366;-0.222;2023-05-07T02:36:06;101123.92;;;21.74;57.15
75745;BME280;64359;51.366;-0.222;2023-05-07T02:37:08;101129.25;;;21.73;57.19
75745;BME280;64359;51.366;-0.222;2023-05-07T02:38:11;101128.38;;;21.73;57.02
75745;BME280;64359;51.366;-0.222;2023-05-07T02:39:13;101125.51;;;21.73;57.08
75745;BME280;64359;51.366;-0.222;2023-05-07T02:40:15;101131.50;;;21.72;57.09
75745;BME280;64359;51.366;-0.222;2023-05-07T02:41:18;101131.00;;;21.72;57.12
75745;BME280;64359;51.366;-0.222;2023-05-07T02:42:20;101134.05;;;21.72;57.11
75745;BME280;64359;51.366;-0.222;2023-05-07T02:43:22;101137.74;;;21.72;57.17
75745;BME280;64359;51.366;-0.222;2023-05-07T02:44:25;101137.41;;;21.71;57.14
75745;BME280;64359;51.366;-0.222;2023-05-07T02:45:27;101137.07;;;21.71;57.13
75745;BME280;64359;51.366;-0.222;2023-05-07T02:46:29;101134.90;;;21.71;57.06
75745;BME280;64359;51.366;-0.222;2023-05-07T02:47:32;101133.56;;;21.70;57.02
75745;BME280;64359;51.366;-0.222;2023-05-07T02:48:34;101132.98;;;21.71;57.12
75745;BME280;64359;51.366;-0.222;2023-05-07T02:49:36;101133.22;;;21.70;57.05
75745;BME280;64359;51.366;-0.222;2023-05-07T02:50:39;101132.17;;;21.70;57.08
75745;BME280;64359;51.366;-0.222;2023-05-07T02:51:41;101130.38;;;21.70;57.13
75745;BME280;64359;51.366;-0.222;2023-05-07T02:52:43;101135.88;;;21.69;57.04
75745;BME280;64359;51.366;-0.222;2023-05-07T02:53:46;101136.95;;;21.69;57.14
75745;BME280;64359;51.366;-0.222;2023-05-07T02:54:48;101137.20;;;21.69;57.07
75745;BME280;64359;51.366;-0.222;2023-05-07T02:55:51;101133.23;;;21.68;57.11
75745;BME280;64359;51.366;-0.222;2023-05-07T02:56:53;101135.95;;;21.69;57.11
75745;BME280;64359;51.366;-0.222;2023-05-07T02:57:55;101133.45;;;21.69;57.00
75745;BME280;64359;51.366;-0.222;2023-05-07T02:58:58;101134.81;;;21.68;57.08
75745;BME280;64359;51.366;-0.222;2023-05-07T03:00:06;101138.60;;;21.67;57.17
75745;BME280;64359;51.366;-0.222;2023-05-07T03:01:11;101139.84;;;21.66;57.18
75745;BME280;64359;51.366;-0.222;2023-05-07T03:02:15;101141.50;;;21.66;57.18
75745;BME280;64359;51.366;-0.222;2023-05-07T03:03:17;101144.83;;;21.66;57.14
75745;BME280;64359;51.366;-0.222;2023-05-07T03:04:20;101141.95;;;21.65;57.10
75745;BME280;64359;51.366;-0.222;2023-05-07T03:05:22;101146.70;;;21.65;57.21
75745;BME280;64359;51.366;-0.222;2023-05-07T03:06:25;101147.31;;;21.64;57.19
75745;BME280;64359;51.366;-0.222;2023-05-07T03:07:27;101146.81;;;21.64;57.16
75745;BME280;64359;51.366;-0.222;2023-05-07T03:08:29;101144.72;;;21.63;57.15
75745;BME280;64359;51.366;-0.222;2023-05-07T03:09:32;101146.21;;;21.63;57.25
75745;BME280;64359;51.366;-0.222;2023-05-07T03:10:34;101145.75;;;21.62;57.30
75745;BME280;64359;51.366;-0.222;2023-05-07T03:11:37;101147.79;;;21.62;57.26
75745;BME280;64359;51.366;-0.222;2023-05-07T03:12:40;101150.57;;;21.62;57.20
75745;BME280;64359;51.366;-0.222;2023-05-07T03:13:42;101151.04;;;21.62;57.15
75745;BME280;64359;51.366;-0.222;2023-05-07T03:14:44;101145.19;;;21.61;57.13
75745;BME280;64359;51.366;-0.222;2023-05-07T03:15:46;101148.27;;;21.61;57.03
75745;BME280;64359;51.366;-0.222;2023-05-07T03:16:49;101143.42;;;21.61;57.09
75745;BME280;64359;51.366;-0.222;2023-05-07T03:17:52;101146.38;;;21.60;57.03
75745;BME280;64359;51.366;-0.222;2023-05-07T03:18:54;101146.95;;;21.60;57.11
75745;BME280;64359;51.366;-0.222;2023-05-07T03:19:56;101148.02;;;21.60;57.08
75745;BME280;64359;51.366;-0.222;2023-05-07T03:20:59;101145.88;;;21.60;57.08
75745;BME280;64359;51.366;-0.222;2023-05-07T03:22:01;101144.79;;;21.60;57.10
75745;BME280;64359;51.366;-0.222;2023-05-07T03:23:03;101145.80;;;21.61;57.09
75745;BME280;64359;51.366;-0.222;2023-05-07T03:24:06;101142.21;;;21.60;57.22
75745;BME280;64359;51.366;-0.222;2023-05-07T03:25:09;101143.05;;;21.61;57.19
75745;BME280;64359;51.366;-0.222;2023-05-07T03:26:12;101146.06;;;21.62;57.12
75745;BME280;64359;51.366;-0.222;2023-05-07T03:27:14;101147.24;;;21.62;57.21
75745;BME280;64359;51.366;-0.222;2023-05-07T03:28:16;101148.86;;;21.62;57.23
75745;BME280;64359;51.366;-0.222;2023-05-07T03:29:18;101151.34;;;21.63;57.12
75745;BME280;64359;51.366;-0.222;2023-05-07T03:30:21;101152.92;;;21.63;57.13
75745;BME280;64359;51.366;-0.222;2023-05-07T03:31:23;101156.23;;;21.64;57.01
75745;BME280;64359;51.366;-0.222;2023-05-07T03:32:26;101159.27;;;21.64;56.91
75745;BME280;64359;51.366;-0.222;2023-05-07T03:33:28;101163.89;;;21.65;56.82
75745;BME280;64359;51.366;-0.222;2023-05-07T03:34:30;101164.56;;;21.65;56.81
75745;BME280;64359;51.366;-0.222;2023-05-07T03:35:33;101163.73;;;21.66;56.91
75745;BME280;64359;51.366;-0.222;2023-05-07T03:36:35;101161.06;;;21.66;56.87
75745;BME280;64359;51.366;-0.222;2023-05-07T03:37:38;101162.61;;;21.66;56.95
75745;BME280;64359;51.366;-0.222;2023-05-07T03:38:40;101165.45;;;21.67;56.98
75745;BME280;64359;51.366;-0.222;2023-05-07T03:39:42;101167.39;;;21.67;56.90
75745;BME280;64359;51.366;-0.222;2023-05-07T03:40:45;101165.22;;;21.67;56.87
75745;BME280;64359;51.366;-0.222;2023-05-07T03:41:47;101169.35;;;21.68;56.86
75745;BME280;64359;51.366;-0.222;2023-05-07T03:42:49;101172.15;;;21.68;56.97
75745;BME280;64359;51.366;-0.222;2023-05-07T03:43:51;101170.20;;;21.68;56.90
75745;BME280;64359;51.366;-0.222;2023-05-07T03:44:54;101173.75;;;21.69;56.94
75745;BME280;64359;51.366;-0.222;2023-05-07T03:45:56;101175.33;;;21.69;56.95
75745;BME280;64359;51.366;-0.222;2023-05-07T03:46:58;101179.84;;;21.69;57.01
75745;BME280;64359;51.366;-0.222;2023-05-07T03:48:01;101179.43;;;21.69;57.05
75745;BME280;64359;51.366;-0.222;2023-05-07T03:49:03;101180.81;;;21.70;57.06
75745;BME280;64359;51.366;-0.222;2023-05-07T03:50:06;101176.69;;;21.70;56.92
75745;BME280;64359;51.366;-0.222;2023-05-07T03:51:09;101180.91;;;21.71;56.78
75745;BME280;64359;51.366;-0.222;2023-05-07T03:52:11;101178.58;;;21.70;56.88
75745;BME280;64359;51.366;-0.222;2023-05-07T03:53:13;101180.84;;;21.71;57.08
75745;BME280;64359;51.366;-0.222;2023-05-07T03:54:16;101179.17;;;21.71;56.94
75745;BME280;64359;51.366;-0.222;2023-05-07T03:55:18;101180.13;;;21.71;56.75
75745;BME280;64359;51.366;-0.222;2023-05-07T03:56:20;101178.45;;;21.71;56.81
75745;BME280;64359;51.366;-0.222;2023-05-07T03:57:23;101181.64;;;21.72;56.90
75745;BME280;64359;51.366;-0.222;2023-05-07T03:58:25;101182.02;;;21.72;56.81
75745;BME280;64359;51.366;-0.222;2023-05-07T03:59:27;101181.06;;;21.72;56.78
75745;BME280;64359;51.366;-0.222;2023-05-07T04:00:29;101183.40;;;21.72;56.71
75745;BME280;64359;51.366;-0.222;2023-05-07T04:01:35;101181.27;;;21.72;56.68
75745;BME280;64359;51.366;-0.222;2023-05-07T04:02:37;101178.73;;;21.72;56.69
75745;BME280;64359;51.366;-0.222;2023-05-07T04:03:39;101175.13;;;21.72;56.74
75745;BME280;64359;51.366;-0.222;2023-05-07T04:04:41;101173.80;;;21.72;56.69
75745;BME280;64359;51.366;-0.222;2023-05-07T04:05:44;101178.68;;;21.72;56.73
75745;BME280;64359;51.366;-0.222;2023-05-07T04:06:46;101175.84;;;21.72;56.74
75745;BME280;64359;51.366;-0.222;2023-05-07T04:07:48;101175.27;;;21.72;56.66
75745;BME280;64359;51.366;-0.222;2023-05-07T04:08:50;101180.81;;;21.73;56.92
75745;BME280;64359;51.366;-0.222;2023-05-07T04:09:53;101176.65;;;21.73;56.87
75745;BME280;64359;51.366;-0.222;2023-05-07T04:10:58;101177.36;;;21.73;56.67
75745;BME280;64359;51.366;-0.222;2023-05-07T04:12:01;101180.77;;;21.73;56.66
75745;BME280;64359;51.366;-0.222;2023-05-07T04:13:03;101184.45;;;21.73;56.66
75745;BME280;64359;51.366;-0.222;2023-05-07T04:14:05;101184.54;;;21.73;56.57
75745;BME280;64359;51.366;-0.222;2023-05-07T04:15:09;101182.95;;;21.73;56.65
75745;BME280;64359;51.366;-0.222;2023-05-07T04:16:12;101184.55;;;21.73;56.59
75745;BME280;64359;51.366;-0.222;2023-05-07T04:17:14;101188.84;;;21.74;56.63
75745;BME280;64359;51.366;-0.222;2023-05-07T04:18:16;101191.59;;;21.73;56.60
75745;BME280;64359;51.366;-0.222;2023-05-07T04:19:19;101192.84;;;21.73;56.53
75745;BME280;64359;51.366;-0.222;2023-05-07T04:20:21;101192.75;;;21.73;56.64
75745;BME280;64359;51.366;-0.222;2023-05-07T04:21:23;101195.05;;;21.73;56.62
75745;BME280;64359;51.366;-0.222;2023-05-07T04:22:26;101196.17;;;21.73;56.61
75745;BME280;64359;51.366;-0.222;2023-05-07T04:23:28;101202.47;;;21.73;56.57
75745;BME280;64359;51.366;-0.222;2023-05-07T04:24:32;101204.14;;;21.73;56.45
75745;BME280;64359;51.366;-0.222;2023-05-07T04:25:35;101205.55;;;21.73;56.59
75745;BME280;64359;51.366;-0.222;2023-05-07T04:26:37;101205.39;;;21.73;56.60
75745;BME280;64359;51.366;-0.222;2023-05-07T04:27:39;101207.15;;;21.73;56.54
75745;BME280;64359;51.366;-0.222;2023-05-07T04:28:41;101210.81;;;21.73;56.54
75745;BME280;64359;51.366;-0.222;2023-05-07T04:29:43;101209.40;;;21.73;56.69
75745;BME280;64359;51.366;-0.222;2023-05-07T04:30:48;101210.14;;;21.72;56.66
75745;BME280;64359;51.366;-0.222;2023-05-07T04:31:51;101214.06;;;21.73;56.69
75745;BME280;64359;51.366;-0.222;2023-05-07T04:32:53;101214.41;;;21.73;56.63
75745;BME280;64359;51.366;-0.222;2023-05-07T04:33:55;101212.27;;;21.73;56.62
75745;BME280;64359;51.366;-0.222;2023-05-07T04:34:58;101211.70;;;21.73;56.60
75745;BME280;64359;51.366;-0.222;2023-05-07T04:36:02;101211.93;;;21.72;56.52
75745;BME280;64359;51.366;-0.222;2023-05-07T04:37:05;101212.61;;;21.73;56.56
75745;BME280;64359;51.366;-0.222;2023-05-07T04:38:07;101213.27;;;21.72;56.61
75745;BME280;64359;51.366;-0.222;2023-05-07T04:39:10;101215.40;;;21.72;56.53
75745;BME280;64359;51.366;-0.222;2023-05-07T04:40:12;101215.73;;;21.73;56.51
75745;BME280;64359;51.366;-0.222;2023-05-07T04:41:15;101215.39;;;21.72;56.93
75745;BME280;64359;51.366;-0.222;2023-05-07T04:42:18;101217.06;;;21.72;56.79
75745;BME280;64359;51.366;-0.222;2023-05-07T04:43:20;101215.23;;;21.72;57.05
75745;BME280;64359;51.366;-0.222;2023-05-07T04:44:23;101216.35;;;21.72;56.71
75745;BME280;64359;51.366;-0.222;2023-05-07T04:45:26;101216.73;;;21.72;56.68
75745;BME280;64359;51.366;-0.222;2023-05-07T04:46:28;101218.36;;;21.72;56.63
75745;BME280;64359;51.366;-0.222;2023-05-07T04:47:31;101218.23;;;21.71;56.69
75745;BME280;64359;51.366;-0.222;2023-05-07T04:48:33;101218.39;;;21.71;56.71
75745;BME280;64359;51.366;-0.222;2023-05-07T04:49:35;101215.34;;;21.71;56.64
75745;BME280;64359;51.366;-0.222;2023-05-07T04:50:38;101219.85;;;21.71;56.57
75745;BME280;64359;51.366;-0.222;2023-05-07T04:51:40;101217.30;;;21.71;56.72
75745;BME280;64359;51.366;-0.222;2023-05-07T04:52:44;101216.93;;;21.72;56.71
75745;BME280;64359;51.366;-0.222;2023-05-07T04:53:46;101217.23;;;21.72;56.81
75745;BME280;64359;51.366;-0.222;2023-05-07T04:54:49;101215.98;;;21.72;56.62
75745;BME280;64359;51.366;-0.222;2023-05-07T04:55:56;101217.23;;;21.72;56.68
75745;BME280;64359;51.366;-0.222;2023-05-07T04:56:58;101219.94;;;21.72;56.62
75745;BME280;64359;51.366;-0.222;2023-05-07T04:58:01;101216.92;;;21.72;56.64
75745;BME280;64359;51.366;-0.222;2023-05-07T04:59:03;101217.09;;;21.72;56.64
75745;BME280;64359;51.366;-0.222;2023-05-07T05:00:08;101218.69;;;21.72;56.72
75745;BME280;64359;51.366;-0.222;2023-05-07T05:01:11;101221.64;;;21.71;56.58
75745;BME280;64359;51.366;-0.222;2023-05-07T05:02:13;101222.18;;;21.72;56.55
75745;BME280;64359;51.366;-0.222;2023-05-07T05:03:15;101226.11;;;21.72;56.45
75745;BME280;64359;51.366;-0.222;2023-05-07T05:04:18;101226.66;;;21.72;56.51
75745;BME280;64359;51.366;-0.222;2023-05-07T05:05:20;101227.85;;;21.71;56.58
75745;BME280;64359;51.366;-0.222;2023-05-07T05:06:23;101233.50;;;21.72;56.58
75745;BME280;64359;51.366;-0.222;2023-05-07T05:07:25;101231.02;;;21.72;56.74
75745;BME280;64359;51.366;-0.222;2023-05-07T05:08:27;101231.70;;;21.72;56.61
75745;BME280;64359;51.366;-0.222;2023-05-07T05:09:31;101229.23;;;21.72;56.64
75745;BME280;64359;51.366;-0.222;2023-05-07T05:10:33;101232.29;;;21.72;56.67
75745;BME280;64359;51.366;-0.222;2023-05-07T05:11:36;101230.08;;;21.72;56.69
75745;BME280;64359;51.366;-0.222;2023-05-07T05:12:38;101230.76;;;21.72;56.57
75745;BME280;64359;51.366;-0.222;2023-05-07T05:13:40;101228.62;;;21.72;56.49
75745;BME280;64359;51.366;-0.222;2023-05-07T05:14:42;101230.91;;;21.73;56.41
75745;BME280;64359;51.366;-0.222;2023-05-07T05:15:45;101230.25;;;21.72;56.52
75745;BME280;64359;51.366;-0.222;2023-05-07T05:16:47;101233.27;;;21.73;56.59
75745;BME280;64359;51.366;-0.222;2023-05-07T05:17:50;101233.05;;;21.73;56.52
75745;BME280;64359;51.366;-0.222;2023-05-07T05:18:52;101235.39;;;21.73;56.45
75745;BME280;64359;51.366;-0.222;2023-05-07T05:19:55;101235.42;;;21.73;56.48
75745;BME280;64359;51.366;-0.222;2023-05-07T05:20:58;101238.30;;;21.73;56.49
75745;BME280;64359;51.366;-0.222;2023-05-07T05:22:00;101238.69;;;21.73;56.50
75745;BME280;64359;51.366;-0.222;2023-05-07T05:23:02;101238.85;;;21.72;56.53
75745;BME280;64359;51.366;-0.222;2023-05-07T05:24:06;101239.97;;;21.72;56.43